createdAt,value
2022-09-14T00:00:44.426Z,6.85
2022-09-14T00:03:14.268Z,8.95
2022-09-14T00:05:44.108Z,9.45
2022-09-14T00:08:14.569Z,9.40
2022-09-14T00:10:49.516Z,8.20
2022-09-14T00:13:19.928Z,9.30
2022-09-14T00:15:50.355Z,5.80
2022-09-14T00:18:19.998Z,14.27
2022-09-14T00:20:49.676Z,10.57
2022-09-14T00:23:19.376Z,7.22
2022-09-14T00:25:49.050Z,7.43
2022-09-14T00:28:18.747Z,10.68
2022-09-14T00:30:49.018Z,4.30
2022-09-14T00:33:18.631Z,10.80
2022-09-14T00:35:48.457Z,6.43
2022-09-14T00:38:18.167Z,6.43
2022-09-14T00:40:47.846Z,4.85
2022-09-14T00:43:18.478Z,5.05
2022-09-14T00:45:48.472Z,4.95
2022-09-14T00:48:18.589Z,7.82
2022-09-14T00:50:48.754Z,6.30
2022-09-14T00:53:18.828Z,9.65
2022-09-14T00:55:48.847Z,5.07
2022-09-14T00:58:18.859Z,4.22
2022-09-14T01:00:49.030Z,6.40
2022-09-14T01:03:19.119Z,3.78
2022-09-14T01:06:14.518Z,5.72
2022-09-14T01:09:13.183Z,4.07
2022-09-14T01:11:57.297Z,3.15
2022-09-14T01:15:06.959Z,3.40
2022-09-14T01:18:09.737Z,4.15
2022-09-14T01:21:03.109Z,3.33
2022-09-14T01:23:59.689Z,3.72
2022-09-14T01:26:54.659Z,3.97
2022-09-14T01:29:43.545Z,3.75
2022-09-14T01:32:33.186Z,3.70
2022-09-14T01:35:28.156Z,3.88
2022-09-14T01:38:07.746Z,5.40
2022-09-14T01:40:52.441Z,5.28
2022-09-14T01:43:39.726Z,3.97
2022-09-14T01:46:20.520Z,3.63
2022-09-14T01:49:13.857Z,2.70
2022-09-14T01:51:54.098Z,3.42
2022-09-14T01:54:48.158Z,10.75
2022-09-14T01:57:30.400Z,4.18
2022-09-14T02:00:06.614Z,5.40
2022-09-14T02:02:43.355Z,5.18
2022-09-14T02:05:21.863Z,2.80
2022-09-14T02:07:51.768Z,5.05
2022-09-14T02:10:24.447Z,10.45
2022-09-14T02:12:55.709Z,5.63
2022-09-14T02:15:27.998Z,2.63
2022-09-14T02:17:59.128Z,4.85
2022-09-14T02:20:57.126Z,4.78
2022-09-14T02:23:28.736Z,3.60
2022-09-14T02:25:59.146Z,5.53
2022-09-14T02:28:29.707Z,5.07
2022-09-14T02:31:38.452Z,8.25
2022-09-14T02:34:47.666Z,4.40
2022-09-14T02:37:50.657Z,3.50
2022-09-14T02:40:43.266Z,2.58
2022-09-14T02:43:44.817Z,7.65
2022-09-14T02:46:36.401Z,2.92
2022-09-14T02:49:31.996Z,3.95
2022-09-14T02:52:18.546Z,4.07
2022-09-14T02:55:01.905Z,4.55
2022-09-14T02:57:31.948Z,3.92
2022-09-14T03:00:01.874Z,2.97
2022-09-14T03:02:31.497Z,3.55
2022-09-14T03:05:01.393Z,2.38
2022-09-14T03:07:31.077Z,2.90
2022-09-14T03:10:00.759Z,4.43
2022-09-14T03:12:33.402Z,3.15
2022-09-14T03:15:03.100Z,5.68
2022-09-14T03:17:34.917Z,2.70
2022-09-14T03:20:08.315Z,2.05
2022-09-14T03:22:38.296Z,5.68
2022-09-14T03:25:08.536Z,3.95
2022-09-14T03:27:38.149Z,3.83
2022-09-14T03:30:09.027Z,4.57
2022-09-14T03:32:39.474Z,4.10
2022-09-14T03:35:10.324Z,9.85
2022-09-14T03:37:42.684Z,7.63
2022-09-14T03:40:19.335Z,2.67
2022-09-14T03:42:52.837Z,3.00
2022-09-14T03:45:23.519Z,2.17
2022-09-14T03:47:53.301Z,10.60
2022-09-14T03:50:27.487Z,4.13
2022-09-14T03:52:57.916Z,4.38
2022-09-14T03:55:28.522Z,5.10
2022-09-14T03:57:58.868Z,3.15
2022-09-14T04:00:31.646Z,2.53
2022-09-14T04:03:02.915Z,2.35
2022-09-14T04:05:34.315Z,3.53
2022-09-14T04:08:04.516Z,2.40
2022-09-14T04:10:34.718Z,3.80
2022-09-14T04:13:04.648Z,2.75
2022-09-14T04:15:37.685Z,3.28
2022-09-14T04:18:07.689Z,3.10
2022-09-14T04:20:40.294Z,1.95
2022-09-14T04:23:11.484Z,3.95
2022-09-14T04:25:42.815Z,2.50
2022-09-14T04:28:20.151Z,3.13
2022-09-14T04:33:36.286Z,7.65
2022-09-14T04:36:16.016Z,3.60
2022-09-14T04:38:49.387Z,3.75
2022-09-14T04:41:22.087Z,3.35
2022-09-14T04:43:53.656Z,2.55
2022-09-14T04:46:26.213Z,2.83
2022-09-14T04:48:56.335Z,4.00
2022-09-14T04:51:29.193Z,6.22
2022-09-14T04:54:04.086Z,3.05
2022-09-14T04:56:36.955Z,2.95
2022-09-14T04:59:10.995Z,2.03
2022-09-14T05:01:44.302Z,2.47
2022-09-14T05:04:16.750Z,2.00
2022-09-14T05:06:47.547Z,3.22
2022-09-14T05:09:19.717Z,2.58
2022-09-14T05:11:51.377Z,2.65
2022-09-14T05:14:21.494Z,4.47
2022-09-14T05:16:52.854Z,4.45
2022-09-14T05:19:24.666Z,2.67
2022-09-14T05:21:57.686Z,2.08
2022-09-14T05:24:28.104Z,3.38
2022-09-14T05:27:01.608Z,3.20
2022-09-14T05:29:33.579Z,2.55
2022-09-14T05:32:03.775Z,3.28
2022-09-14T05:34:38.434Z,3.72
2022-09-14T05:37:26.678Z,2.25
2022-09-14T05:40:10.976Z,2.30
2022-09-14T05:42:43.958Z,2.35
2022-09-14T05:45:13.653Z,3.15
2022-09-14T05:47:49.420Z,3.65
2022-09-14T05:50:25.077Z,2.92
2022-09-14T05:52:57.487Z,1.52
2022-09-14T05:55:28.647Z,3.05
2022-09-14T05:58:01.905Z,2.70
2022-09-14T06:00:35.197Z,1.83
2022-09-14T06:03:10.505Z,3.20
2022-09-14T06:05:41.140Z,3.38
2022-09-14T06:08:17.205Z,2.88
2022-09-14T06:10:51.223Z,3.00
2022-09-14T06:13:27.719Z,3.13
2022-09-14T06:15:58.347Z,2.72
2022-09-14T06:22:17.926Z,1.92
2022-09-14T06:24:53.237Z,3.20
2022-09-14T06:27:26.494Z,2.25
2022-09-14T06:29:57.597Z,2.20
2022-09-14T06:32:31.178Z,2.50
2022-09-14T06:35:03.673Z,4.18
2022-09-14T06:37:33.748Z,2.50
2022-09-14T06:40:06.163Z,2.13
2022-09-14T06:42:36.666Z,2.30
2022-09-14T06:45:10.906Z,3.53
2022-09-14T06:47:44.254Z,2.67
2022-09-14T06:50:14.784Z,4.60
2022-09-14T06:52:44.905Z,2.60
2022-09-14T06:55:16.868Z,2.58
2022-09-14T06:57:53.984Z,4.32
2022-09-14T07:00:24.101Z,3.55
2022-09-14T07:02:55.902Z,2.17
2022-09-14T07:05:32.344Z,4.68
2022-09-14T07:08:02.847Z,3.17
2022-09-14T07:10:34.457Z,1.80
2022-09-14T07:13:19.566Z,2.85
2022-09-14T07:15:54.883Z,2.42
2022-09-14T07:18:41.087Z,2.38
2022-09-14T07:21:16.446Z,3.97
2022-09-14T07:23:53.497Z,4.82
2022-09-14T07:26:28.900Z,4.47
2022-09-14T07:29:06.516Z,2.38
2022-09-14T07:31:43.248Z,1.80
2022-09-14T07:34:15.630Z,7.07
2022-09-14T07:36:45.938Z,4.68
2022-09-14T07:39:22.499Z,5.20
2022-09-14T07:41:54.153Z,2.97
2022-09-14T07:44:23.898Z,2.20
2022-09-14T07:46:53.904Z,3.28
2022-09-14T07:49:27.946Z,2.00
2022-09-14T07:52:04.837Z,10.15
2022-09-14T07:54:41.615Z,8.43
2022-09-14T07:57:11.453Z,10.13
2022-09-14T07:59:42.805Z,3.17
2022-09-14T08:02:14.803Z,3.70
2022-09-14T08:04:45.194Z,3.03
2022-09-14T08:07:16.573Z,6.18
2022-09-14T08:09:48.799Z,5.05
2022-09-14T08:12:20.269Z,4.43
2022-09-14T08:14:53.031Z,3.40
2022-09-14T08:17:26.748Z,3.20
2022-09-14T08:19:57.415Z,3.22
2022-09-14T08:22:28.414Z,4.18
2022-09-14T08:25:01.716Z,5.03
2022-09-14T08:27:35.698Z,3.30
2022-09-14T08:30:07.076Z,5.55
2022-09-14T08:32:39.938Z,4.40
2022-09-14T08:35:15.126Z,5.53
2022-09-14T08:37:46.254Z,4.60
2022-09-14T08:40:18.082Z,5.03
2022-09-14T08:42:50.304Z,4.22
2022-09-14T08:45:21.541Z,4.30
2022-09-14T08:47:54.279Z,7.00
2022-09-14T08:50:25.407Z,4.80
2022-09-14T08:52:56.492Z,6.40
2022-09-14T08:55:51.986Z,4.32
2022-09-14T08:59:01.915Z,3.88
2022-09-14T09:02:07.831Z,4.30
2022-09-14T09:05:19.098Z,3.58
2022-09-14T09:08:05.748Z,4.63
2022-09-14T09:10:38.737Z,4.32
2022-09-14T09:13:15.054Z,3.10
2022-09-14T09:15:55.447Z,7.10
2022-09-14T09:18:42.135Z,5.40
2022-09-14T09:21:26.344Z,13.70
2022-09-14T09:24:06.576Z,8.55
2022-09-14T09:26:38.058Z,15.43
2022-09-14T09:29:11.866Z,6.90
2022-09-14T09:31:49.229Z,9.57
2022-09-14T09:34:25.828Z,11.35
2022-09-14T09:36:58.825Z,8.25
2022-09-14T09:39:28.983Z,14.48
2022-09-14T09:42:28.604Z,17.70
2022-09-14T09:45:07.746Z,10.65
2022-09-14T09:47:43.426Z,11.75
2022-09-14T09:50:24.179Z,10.35
2022-09-14T09:52:56.858Z,12.52
2022-09-14T09:55:41.397Z,8.50
2022-09-14T09:58:36.341Z,12.15
2022-09-14T10:01:12.570Z,9.43
2022-09-14T10:03:43.266Z,8.02
2022-09-14T10:06:16.426Z,12.10
2022-09-14T10:08:51.427Z,14.88
2022-09-14T10:11:41.444Z,18.70
2022-09-14T10:14:25.857Z,13.95
2022-09-14T10:17:19.715Z,15.95
2022-09-14T10:19:56.451Z,21.33
2022-09-14T10:22:38.050Z,9.90
2022-09-14T10:25:29.596Z,11.68
2022-09-14T10:28:02.457Z,8.20
2022-09-14T10:30:50.957Z,22.88
2022-09-14T10:33:24.577Z,15.48
2022-09-14T10:36:29.615Z,11.15
2022-09-14T10:39:31.637Z,8.88
2022-09-14T10:42:35.485Z,8.93
2022-09-14T10:45:20.098Z,12.85
2022-09-14T10:48:22.857Z,10.75
2022-09-14T10:51:20.916Z,5.78
2022-09-14T10:54:18.769Z,10.38
2022-09-14T10:57:26.723Z,6.70
2022-09-14T11:00:17.496Z,11.95
2022-09-14T11:03:23.442Z,7.32
2022-09-14T11:06:19.096Z,8.13
2022-09-14T11:09:00.181Z,6.65
2022-09-14T11:11:55.477Z,8.30
2022-09-14T11:15:04.264Z,6.80
2022-09-14T11:18:07.885Z,7.63
2022-09-14T11:21:05.884Z,8.90
2022-09-14T11:23:48.579Z,4.55
2022-09-14T11:26:42.355Z,6.72
2022-09-14T11:29:43.777Z,4.22
2022-09-14T11:32:41.327Z,6.57
2022-09-14T11:38:05.307Z,4.75
2022-09-14T11:41:05.058Z,4.90
2022-09-14T11:44:14.953Z,4.55
2022-09-14T11:46:52.354Z,4.10
2022-09-14T11:49:52.733Z,2.55
2022-09-14T11:52:26.026Z,2.83
2022-09-14T11:54:58.954Z,3.78
2022-09-14T11:57:35.897Z,3.40
2022-09-14T12:00:14.256Z,6.93
2022-09-14T12:02:59.977Z,4.88
2022-09-14T12:05:34.644Z,11.93
2022-09-14T12:08:07.707Z,8.13
2022-09-14T12:11:16.464Z,4.65
2022-09-14T12:13:48.982Z,5.53
2022-09-14T12:16:20.068Z,10.63
2022-09-14T12:18:58.705Z,7.95
2022-09-14T12:21:29.387Z,4.65
2022-09-14T12:24:01.283Z,7.47
2022-09-14T12:26:34.817Z,5.53
2022-09-14T12:29:27.927Z,5.45
2022-09-14T12:32:29.234Z,7.50
2022-09-14T12:35:38.985Z,7.47
2022-09-14T12:38:42.262Z,4.40
2022-09-14T12:41:51.092Z,4.40
2022-09-14T12:44:42.683Z,5.03
2022-09-14T12:47:52.667Z,2.75
2022-09-14T12:50:25.690Z,6.18
2022-09-14T12:53:23.185Z,3.58
2022-09-14T12:56:15.296Z,6.32
2022-09-14T12:59:11.807Z,6.40
2022-09-14T13:02:23.843Z,6.70
2022-09-14T13:05:03.475Z,4.57
2022-09-14T13:07:37.757Z,5.07
2022-09-14T13:10:09.227Z,6.00
2022-09-14T13:12:46.966Z,8.75
2022-09-14T13:15:24.728Z,9.30
2022-09-14T13:18:10.999Z,11.73
2022-09-14T13:20:42.219Z,10.35
2022-09-14T13:23:28.217Z,6.57
2022-09-14T13:25:58.173Z,10.73
2022-09-14T13:28:32.824Z,10.18
2022-09-14T13:31:07.185Z,14.02
2022-09-14T13:33:39.915Z,19.67
2022-09-14T13:36:10.334Z,24.35
2022-09-14T13:38:44.106Z,17.13
2022-09-14T13:41:18.156Z,13.32
2022-09-14T13:43:49.567Z,9.27
2022-09-14T13:46:22.886Z,7.03
2022-09-14T13:48:56.601Z,7.25
2022-09-14T13:51:30.387Z,8.50
2022-09-14T13:54:30.507Z,8.85
2022-09-14T13:57:24.007Z,9.95
2022-09-14T14:00:22.006Z,7.88
2022-09-14T14:03:01.427Z,9.77
2022-09-14T14:05:37.876Z,11.00
2022-09-14T14:08:40.747Z,9.63
2022-09-14T14:11:15.694Z,9.75
2022-09-14T14:13:50.835Z,15.38
2022-09-14T14:16:28.789Z,6.35
2022-09-14T14:21:41.061Z,4.97
2022-09-14T14:24:33.706Z,13.65
2022-09-14T14:27:05.148Z,4.50
2022-09-14T14:29:38.855Z,8.25
2022-09-14T14:32:13.941Z,8.77
2022-09-14T14:34:49.693Z,6.38
2022-09-14T14:37:19.871Z,7.70
2022-09-14T14:42:34.252Z,5.28
2022-09-14T14:45:07.387Z,5.55
2022-09-14T14:47:45.186Z,9.07
2022-09-14T14:50:23.733Z,12.52
2022-09-14T14:52:57.447Z,5.15
2022-09-14T14:55:30.398Z,6.50
2022-09-14T14:58:04.307Z,5.75
2022-09-14T15:00:37.046Z,5.55
2022-09-14T15:03:12.588Z,6.65
2022-09-14T15:05:45.869Z,13.30
2022-09-14T15:08:18.262Z,8.65
2022-09-14T15:10:50.183Z,7.05
2022-09-14T15:13:22.607Z,10.15
2022-09-14T15:15:55.760Z,11.32
2022-09-14T15:18:32.236Z,8.32
2022-09-14T15:21:06.097Z,8.60
2022-09-14T15:23:38.662Z,11.75
2022-09-14T15:26:15.897Z,5.63
2022-09-14T15:28:47.646Z,7.45
2022-09-14T15:31:19.269Z,15.63
2022-09-14T15:34:00.535Z,7.85
2022-09-14T15:36:56.647Z,10.63
2022-09-14T15:39:56.279Z,14.73
2022-09-14T15:42:28.426Z,8.65
2022-09-14T15:44:59.716Z,9.82
2022-09-14T15:47:36.472Z,6.65
2022-09-14T15:50:13.513Z,6.60
2022-09-14T15:52:47.007Z,11.90
2022-09-14T15:55:21.077Z,10.35
2022-09-14T15:57:50.885Z,9.85
2022-09-14T16:00:40.702Z,10.10
2022-09-14T16:03:16.927Z,16.27
2022-09-14T16:05:51.035Z,9.27
2022-09-14T16:08:37.099Z,10.13
2022-09-14T16:11:13.849Z,4.65
2022-09-14T16:13:43.796Z,6.03
2022-09-14T16:16:18.506Z,6.40
2022-09-14T16:18:54.665Z,9.43
2022-09-14T16:21:29.733Z,8.18
2022-09-14T16:24:04.226Z,7.28
2022-09-14T16:26:37.693Z,8.02
2022-09-14T16:29:11.606Z,6.00
2022-09-14T16:31:43.722Z,3.95
2022-09-14T16:34:22.264Z,4.88
2022-09-14T16:36:56.541Z,5.30
2022-09-14T16:39:39.165Z,8.98
2022-09-14T16:42:18.513Z,9.88
2022-09-14T16:44:56.952Z,4.18
2022-09-14T16:47:27.546Z,9.68
2022-09-14T16:50:00.130Z,6.65
2022-09-14T16:52:31.516Z,5.72
2022-09-14T16:55:01.322Z,6.72
2022-09-14T16:57:33.086Z,9.13
2022-09-14T17:00:05.474Z,7.05
2022-09-14T17:02:35.332Z,8.70
2022-09-14T17:05:07.047Z,13.75
2022-09-14T17:07:39.700Z,8.40
2022-09-14T17:10:12.374Z,8.25
2022-09-14T17:12:43.225Z,11.02
2022-09-14T17:15:16.725Z,12.52
2022-09-14T17:17:46.505Z,20.02
2022-09-14T17:20:17.890Z,14.93
2022-09-14T17:22:47.694Z,13.35
2022-09-14T17:25:17.513Z,10.95
2022-09-14T17:27:47.398Z,12.88
2022-09-14T17:30:17.377Z,16.08
2022-09-14T17:32:47.244Z,9.88
2022-09-14T17:35:17.183Z,14.40
2022-09-14T17:37:47.743Z,10.93
2022-09-14T17:40:17.979Z,10.38
2022-09-14T17:42:51.245Z,17.85
2022-09-14T17:45:20.996Z,10.90
2022-09-14T17:47:53.923Z,9.73
2022-09-14T17:50:30.473Z,11.57
2022-09-14T17:53:00.360Z,12.90
2022-09-14T17:55:51.763Z,11.68
2022-09-14T17:58:21.857Z,7.63
2022-09-14T18:00:53.137Z,7.85
2022-09-14T18:03:24.796Z,7.05
2022-09-14T18:05:58.776Z,5.45
2022-09-14T18:08:28.504Z,11.57
2022-09-14T18:10:59.397Z,9.05
2022-09-14T18:13:30.547Z,9.82
2022-09-14T18:16:00.348Z,9.93
2022-09-14T18:18:32.155Z,10.25
2022-09-14T18:21:09.074Z,3.80
2022-09-14T18:23:39.716Z,10.68
2022-09-14T18:26:12.077Z,5.57
2022-09-14T18:28:41.814Z,8.10
2022-09-14T18:31:14.284Z,7.75
2022-09-14T18:34:02.033Z,5.90
2022-09-14T18:36:34.235Z,8.65
2022-09-14T18:39:05.926Z,6.68
2022-09-14T18:41:36.038Z,7.55
2022-09-14T18:44:06.547Z,5.18
2022-09-14T18:46:36.593Z,6.38
2022-09-14T18:49:06.724Z,6.10
2022-09-14T18:51:36.838Z,11.43
2022-09-14T18:54:10.063Z,11.35
2022-09-14T18:56:40.215Z,7.70
2022-09-14T18:59:15.227Z,7.20
2022-09-14T19:01:45.864Z,7.03
2022-09-14T19:04:17.478Z,10.45
2022-09-14T19:06:47.511Z,14.40
2022-09-14T19:09:17.834Z,11.63
2022-09-14T19:11:48.211Z,9.02
2022-09-14T19:14:19.223Z,9.82
2022-09-14T19:16:49.346Z,9.88
2022-09-14T19:19:19.376Z,7.30
2022-09-14T19:21:50.374Z,10.70
2022-09-14T19:24:20.753Z,9.68
2022-09-14T19:26:53.405Z,7.57
2022-09-14T19:29:25.224Z,9.18
2022-09-14T19:31:56.005Z,10.35
2022-09-14T19:34:28.074Z,7.80
2022-09-14T19:36:58.238Z,8.10
2022-09-14T19:39:29.432Z,7.07
2022-09-14T19:41:59.540Z,10.38
2022-09-14T19:44:29.914Z,7.72
2022-09-14T19:46:59.876Z,15.85
2022-09-14T19:49:29.989Z,8.98
2022-09-14T19:52:00.278Z,6.15
2022-09-14T19:54:30.568Z,12.73
2022-09-14T19:57:00.802Z,7.57
2022-09-14T19:59:30.865Z,10.25
2022-09-14T20:02:01.018Z,11.30
2022-09-14T20:04:31.146Z,7.55
2022-09-14T20:07:01.120Z,11.82
2022-09-14T20:09:31.249Z,6.68
2022-09-14T20:12:01.586Z,11.20
2022-09-14T20:14:31.736Z,7.28
2022-09-14T20:17:02.095Z,11.93
2022-09-14T20:19:34.186Z,13.57
2022-09-14T20:22:04.755Z,11.63
2022-09-14T20:24:34.854Z,11.90
2022-09-14T20:27:04.906Z,10.55
2022-09-14T20:29:37.157Z,9.85
2022-09-14T20:32:08.062Z,10.18
2022-09-14T20:34:37.896Z,10.35
2022-09-14T20:37:07.624Z,13.57
2022-09-14T20:39:39.887Z,13.13
2022-09-14T20:42:09.776Z,12.70
2022-09-14T20:44:39.678Z,15.02
2022-09-14T20:47:09.436Z,15.60
2022-09-14T20:49:39.175Z,11.82
2022-09-14T20:52:08.933Z,12.43
2022-09-14T20:54:38.583Z,10.57
2022-09-14T20:57:08.367Z,7.80
2022-09-14T20:59:38.012Z,11.80
2022-09-14T21:02:07.712Z,9.05
2022-09-14T21:04:37.799Z,6.53
2022-09-14T21:07:07.784Z,9.05
2022-09-14T21:09:37.914Z,10.00
2022-09-14T21:12:07.813Z,6.65
2022-09-14T21:14:37.367Z,7.90
2022-09-14T21:17:06.954Z,5.55
2022-09-14T21:19:36.706Z,8.00
2022-09-14T21:22:07.937Z,9.38
2022-09-14T21:24:37.885Z,4.80
2022-09-14T21:27:09.357Z,5.97
2022-09-14T21:29:39.234Z,9.30
2022-09-14T21:32:09.239Z,4.05
2022-09-14T21:34:39.455Z,9.10
2022-09-14T21:37:10.033Z,7.70
2022-09-14T21:39:41.966Z,10.35
2022-09-14T21:42:11.583Z,5.05
2022-09-14T21:44:41.215Z,8.18
2022-09-14T21:47:10.958Z,8.38
2022-09-14T21:49:40.623Z,7.97
2022-09-14T21:52:10.280Z,3.80
2022-09-14T21:54:39.968Z,5.93
2022-09-14T21:57:09.676Z,11.45
2022-09-14T21:59:39.526Z,5.22
2022-09-14T22:02:09.165Z,7.10
2022-09-14T22:04:38.847Z,6.63
2022-09-14T22:07:08.495Z,11.35
2022-09-14T22:09:38.087Z,4.60
2022-09-14T22:12:07.928Z,4.63
2022-09-14T22:14:37.735Z,6.57
2022-09-14T22:17:07.415Z,4.53
2022-09-14T22:19:37.447Z,4.00
2022-09-14T22:22:07.817Z,8.82
2022-09-14T22:24:40.397Z,3.80
2022-09-14T22:27:11.514Z,5.50
2022-09-14T22:29:45.624Z,4.63
2022-09-14T22:32:15.299Z,9.93
2022-09-14T22:34:49.477Z,6.15
2022-09-14T22:37:19.616Z,6.10
2022-09-14T22:39:50.435Z,6.82
2022-09-14T22:42:20.416Z,7.10
2022-09-14T22:44:50.448Z,5.80
2022-09-14T22:47:20.488Z,7.10
2022-09-14T22:49:50.554Z,16.85
2022-09-14T22:52:20.585Z,9.00
2022-09-14T22:54:50.467Z,5.70
2022-09-14T22:57:20.479Z,12.27
2022-09-14T22:59:50.405Z,6.95
2022-09-14T23:02:20.385Z,13.77
2022-09-14T23:04:50.825Z,8.38
2022-09-14T23:07:21.835Z,12.57
2022-09-14T23:09:51.807Z,20.35
2022-09-14T23:12:21.755Z,14.38
2022-09-14T23:14:51.744Z,11.30
2022-09-14T23:17:21.706Z,8.02
2022-09-14T23:19:52.536Z,10.77
2022-09-14T23:22:22.454Z,10.75
2022-09-14T23:24:52.508Z,7.80
2022-09-14T23:27:22.526Z,14.98
2022-09-14T23:29:52.474Z,7.18
2022-09-14T23:32:22.546Z,7.90
2022-09-14T23:34:52.597Z,3.80
2022-09-14T23:37:22.197Z,5.22
2022-09-14T23:39:52.792Z,7.43
2022-09-14T23:42:23.468Z,5.78
2022-09-14T23:44:53.798Z,6.60
2022-09-14T23:47:23.714Z,8.27
2022-09-14T23:49:53.686Z,7.05
2022-09-14T23:52:23.879Z,5.78
2022-09-14T23:54:53.938Z,5.55
2022-09-14T23:57:24.357Z,6.30
2022-09-14T23:59:54.285Z,7.45
